CheckWX is a tool to help pilots better visualize weather data.  It is not intended as a substitute for an official pre-flight weather briefing.

12:30:30 UTC

EBAW METAR
Antwerp International (Deurne) Airport
Antwerp, Belgium
Current

11 mins ago

EBAW 181220Z 21005KT 170V270 CAVOK 14/01 Q1017 NOSIG
Observed
Feb-18 @ 12:20 UTC
Wind
  • 210° at 5 KTS
Visibility
10,000+ meters
Flight Rules
VFR
Cloud Levels
  • Clear skies
Temperature
14°C / 57°F
Dewpoint
C / 34°F
Humidity
41%
Altimeter
30.03" Hg
Pressure
1016.92 hPa
Previous

41 mins ago

EBAW 181150Z 21006KT CAVOK 13/01 Q1017 NOSIG
Observed
Feb-18 @ 11:50 UTC
Wind
  • 210° at 6 KTS
Visibility
10,000+ meters
Flight Rules
VFR
Cloud Levels
  • Clear skies
Temperature
13°C / 55°F
Dewpoint
C / 34°F
Humidity
44%
Altimeter
30.03" Hg
Pressure
1016.92 hPa
Previous

1 hour ago

EBAW 181120Z 21004KT 170V250 CAVOK 13/02 Q1017 NOSIG
Observed
Feb-18 @ 11:20 UTC
Wind
  • 210° at 4 KTS
Visibility
10,000+ meters
Flight Rules
VFR
Cloud Levels
  • Clear skies
Temperature
13°C / 55°F
Dewpoint
C / 36°F
Humidity
47%
Altimeter
30.03" Hg
Pressure
1016.92 hPa